Pas de vigilance météorologique particulière.    Il n'y a aucun avertissement

Visitez nos sites météorologiques autres:

Template documentation
and downloads

And another site



Rapports METAR proximité

   
EHVK - Volkel Rnlafb, Netherlands
Distance: SO 18 km
Mise à jour: 17-04-2021 18:55
Nuageux  
Nuageux  
   Vent: NNO 16.7 km/h
Vent: NNO 16.7 km/h
Température: 11°C
Point de rosée: 2°C
Humidité: 54%
Baromètre: 1023 hPa
Nuageux: Nuageux
visibilité: More than 10 km
Détails des nuages: Nuageux 4600 ft,
Nuageux 7500 ft
EHVK 171655Z AUTO 33009KT 270V020 9999 BKN046 BKN075 11/02 Q1023 BLU
EDLV - Niederrhein, Germany
Distance: SE 25 km
Mise à jour: 17-04-2021 18:50
Claires  
Claires  
   Vent: North 7.4 km/h
Vent: North 7.4 km/h
Température: 12°C
Point de rosée: 1°C
Humidité: 47%
Baromètre: 1023 hPa
visibilité: More than 10 km
Détails des nuages: Claires
EDLV 171650Z 36004KT 300V060 CAVOK 12/01 Q1023
EHDL - Deelen Rnlafb, Netherlands
Distance: N 35 km
Mise à jour: 17-04-2021 18:55
Claires  
Claires  
   Vent: NNO 22.2 km/h
Vent: NNO 22.2 km/h
Température: 11°C
Point de rosée: 2°C
Humidité: 54%
Baromètre: 1023 hPa
Nuageux: Claires
visibilité: More than 10 km
Détails des nuages: Claires
EHDL 171655Z AUTO 33012KT 260V360 9999 NCD 11/02 Q1023 BLU
EHEH - Eindhoven Rnlafb, Netherlands
Distance: SO 48 km
Mise à jour: 17-04-2021 18:55
Nuageux  
Nuageux  
   Vent: North 18.5 km/h
Vent: North 18.5 km/h
Température: 11°C
Point de rosée: 2°C
Humidité: 54%
Baromètre: 1023 hPa
Nuageux: Nuageux
visibilité: More than 10 km
Détails des nuages: Partiellement nuageux 5300 ft,
Nuageux 10000 ft
EHEH 171655Z AUTO 36010KT 300V040 9999 SCT053 OVC100 11/02 Q1023 BLU NOSIG
EHGR - Gilze-Rijen Rnla, Netherlands
Distance: OSO 70 km
Mise à jour: 17-04-2021 18:55
Peu de nuages  
Peu de nuages  
   Vent: North 18.5 km/h
Vent: North 18.5 km/h
Température: 11°C
Point de rosée: 2°C
Humidité: 54%
Baromètre: 1024 hPa
Nuageux: Peu de nuages
visibilité: More than 10 km
Détails des nuages: Peu de nuages 4200 ft
EHGR 171655Z AUTO 36010KT 310V070 9999 FEW042 11/02 Q1024 BLU
EBBL - Kleine-Brogel(Ba, Belgium
Distance: SSO 71 km
Mise à jour: 17-04-2021 18:55
Nuageux  
Nuageux  
   Vent: NNE 14.8 km/h
Vent: NNE 14.8 km/h
Température: 12°C
Point de rosée: 0°C
Humidité: 44%
Baromètre: 1023 hPa
Nuageux: Nuageux
visibilité: More than 10 km
Détails des nuages: Nuageux 5600 ft
EBBL 171655Z AUTO 02008KT 9999 OVC056/// 12/00 Q1023 BLU

Script développé par  Saratoga-weather.org Adapté pour le modèle par  Weerstation Leuven